sensor_id;sensor_type;location;lat;lon;timestamp;temperature;humidity
74511;DHT22;62991;50.040;18.400;2022-11-20T00:00:39;1.30;48.50
74511;DHT22;62991;50.040;18.400;2022-11-20T00:03:39;1.30;48.50
74511;DHT22;62991;50.040;18.400;2022-11-20T00:06:40;1.20;48.50
74511;DHT22;62991;50.040;18.400;2022-11-20T00:09:41;1.30;48.60
74511;DHT22;62991;50.040;18.400;2022-11-20T00:12:42;1.20;48.60
74511;DHT22;62991;50.040;18.400;2022-11-20T00:15:42;1.30;48.70
74511;DHT22;62991;50.040;18.400;2022-11-20T00:18:43;1.30;48.70
74511;DHT22;62991;50.040;18.400;2022-11-20T00:21:45;1.30;48.70
74511;DHT22;62991;50.040;18.400;2022-11-20T00:24:45;1.30;48.70
74511;DHT22;62991;50.040;18.400;2022-11-20T00:27:46;1.40;48.70
74511;DHT22;62991;50.040;18.400;2022-11-20T00:30:47;1.40;48.70
74511;DHT22;62991;50.040;18.400;2022-11-20T00:33:47;1.40;48.80
74511;DHT22;62991;50.040;18.400;2022-11-20T00:36:48;1.40;48.80
74511;DHT22;62991;50.040;18.400;2022-11-20T00:39:49;1.40;48.80
74511;DHT22;62991;50.040;18.400;2022-11-20T00:42:49;1.40;48.80
74511;DHT22;62991;50.040;18.400;2022-11-20T00:45:50;1.40;48.90
74511;DHT22;62991;50.040;18.400;2022-11-20T00:48:51;1.40;48.90
74511;DHT22;62991;50.040;18.400;2022-11-20T00:51:52;1.40;48.90
74511;DHT22;62991;50.040;18.400;2022-11-20T00:54:52;1.30;49.00
74511;DHT22;62991;50.040;18.400;2022-11-20T00:57:53;1.30;49.00
74511;DHT22;62991;50.040;18.400;2022-11-20T01:01:00;1.30;49.00
74511;DHT22;62991;50.040;18.400;2022-11-20T01:04:01;1.30;49.00
74511;DHT22;62991;50.040;18.400;2022-11-20T01:07:02;1.30;49.10
74511;DHT22;62991;50.040;18.400;2022-11-20T01:10:02;1.30;49.20
74511;DHT22;62991;50.040;18.400;2022-11-20T01:13:03;1.30;49.20
74511;DHT22;62991;50.040;18.400;2022-11-20T01:16:35;1.20;49.20
74511;DHT22;62991;50.040;18.400;2022-11-20T01:19:36;1.20;49.30
74511;DHT22;62991;50.040;18.400;2022-11-20T01:22:37;1.20;49.30
74511;DHT22;62991;50.040;18.400;2022-11-20T01:25:38;1.20;49.30
74511;DHT22;62991;50.040;18.400;2022-11-20T01:28:39;1.20;49.40
74511;DHT22;62991;50.040;18.400;2022-11-20T01:31:40;1.20;49.40
74511;DHT22;62991;50.040;18.400;2022-11-20T01:34:41;1.20;49.40
74511;DHT22;62991;50.040;18.400;2022-11-20T01:37:42;1.20;49.50
74511;DHT22;62991;50.040;18.400;2022-11-20T01:40:43;1.20;49.50
74511;DHT22;62991;50.040;18.400;2022-11-20T01:43:43;1.20;49.50
74511;DHT22;62991;50.040;18.400;2022-11-20T01:46:59;1.20;49.60
74511;DHT22;62991;50.040;18.400;2022-11-20T01:53:14;1.20;49.60
74511;DHT22;62991;50.040;18.400;2022-11-20T01:56:17;1.20;49.70
74511;DHT22;62991;50.040;18.400;2022-11-20T01:59:18;1.20;49.60
74511;DHT22;62991;50.040;18.400;2022-11-20T02:02:21;1.20;49.70
74511;DHT22;62991;50.040;18.400;2022-11-20T02:08:40;1.20;49.80
74511;DHT22;62991;50.040;18.400;2022-11-20T02:11:41;1.10;49.70
74511;DHT22;62991;50.040;18.400;2022-11-20T02:14:42;1.10;49.80
74511;DHT22;62991;50.040;18.400;2022-11-20T02:17:43;1.10;49.80
74511;DHT22;62991;50.040;18.400;2022-11-20T02:20:45;1.10;49.90
74511;DHT22;62991;50.040;18.400;2022-11-20T02:24:15;1.10;49.90
74511;DHT22;62991;50.040;18.400;2022-11-20T02:27:18;1.20;49.90
74511;DHT22;62991;50.040;18.400;2022-11-20T02:30:19;1.10;49.90
74511;DHT22;62991;50.040;18.400;2022-11-20T02:33:19;1.10;49.90
74511;DHT22;62991;50.040;18.400;2022-11-20T02:36:20;1.10;50.00
74511;DHT22;62991;50.040;18.400;2022-11-20T02:39:24;1.10;50.00
74511;DHT22;62991;50.040;18.400;2022-11-20T02:42:25;1.10;50.00
74511;DHT22;62991;50.040;18.400;2022-11-20T02:45:26;1.10;50.00
74511;DHT22;62991;50.040;18.400;2022-11-20T02:48:26;1.10;50.10
74511;DHT22;62991;50.040;18.400;2022-11-20T02:51:27;1.10;50.00
74511;DHT22;62991;50.040;18.400;2022-11-20T02:54:28;1.10;50.10
74511;DHT22;62991;50.040;18.400;2022-11-20T02:57:28;1.10;50.10
74511;DHT22;62991;50.040;18.400;2022-11-20T03:00:29;1.10;50.20
74511;DHT22;62991;50.040;18.400;2022-11-20T03:03:30;1.10;50.20
74511;DHT22;62991;50.040;18.400;2022-11-20T03:06:31;1.10;50.30
74511;DHT22;62991;50.040;18.400;2022-11-20T03:09:31;1.00;50.30
74511;DHT22;62991;50.040;18.400;2022-11-20T03:12:32;1.00;50.40
74511;DHT22;62991;50.040;18.400;2022-11-20T03:15:33;1.00;50.40
74511;DHT22;62991;50.040;18.400;2022-11-20T03:18:33;1.00;50.50
74511;DHT22;62991;50.040;18.400;2022-11-20T03:21:35;1.00;50.60
74511;DHT22;62991;50.040;18.400;2022-11-20T03:24:35;0.90;50.60
74511;DHT22;62991;50.040;18.400;2022-11-20T03:27:36;0.90;50.70
74511;DHT22;62991;50.040;18.400;2022-11-20T03:30:37;0.90;50.70
74511;DHT22;62991;50.040;18.400;2022-11-20T03:33:39;0.90;50.80
74511;DHT22;62991;50.040;18.400;2022-11-20T03:36:41;0.90;50.80
74511;DHT22;62991;50.040;18.400;2022-11-20T03:39:42;0.90;50.80
74511;DHT22;62991;50.040;18.400;2022-11-20T03:42:43;0.80;50.90
74511;DHT22;62991;50.040;18.400;2022-11-20T03:45:46;0.80;50.90
74511;DHT22;62991;50.040;18.400;2022-11-20T03:48:47;0.80;51.00
74511;DHT22;62991;50.040;18.400;2022-11-20T03:51:48;0.80;50.90
74511;DHT22;62991;50.040;18.400;2022-11-20T03:54:49;0.80;51.00
74511;DHT22;62991;50.040;18.400;2022-11-20T03:57:49;0.90;51.00
74511;DHT22;62991;50.040;18.400;2022-11-20T04:00:50;0.80;51.00
74511;DHT22;62991;50.040;18.400;2022-11-20T04:03:52;0.80;51.00
74511;DHT22;62991;50.040;18.400;2022-11-20T04:06:53;0.80;51.10
74511;DHT22;62991;50.040;18.400;2022-11-20T04:09:54;0.90;51.10
74511;DHT22;62991;50.040;18.400;2022-11-20T04:12:55;0.90;51.10
74511;DHT22;62991;50.040;18.400;2022-11-20T04:15:57;0.90;51.10
74511;DHT22;62991;50.040;18.400;2022-11-20T04:19:00;0.90;51.10
74511;DHT22;62991;50.040;18.400;2022-11-20T04:22:01;0.90;51.10
74511;DHT22;62991;50.040;18.400;2022-11-20T04:25:02;0.90;51.10
74511;DHT22;62991;50.040;18.400;2022-11-20T04:28:03;0.90;51.20
74511;DHT22;62991;50.040;18.400;2022-11-20T04:31:04;0.90;51.30
74511;DHT22;62991;50.040;18.400;2022-11-20T04:34:06;0.90;51.20
74511;DHT22;62991;50.040;18.400;2022-11-20T04:37:07;0.90;51.30
74511;DHT22;62991;50.040;18.400;2022-11-20T04:40:08;0.90;51.30
74511;DHT22;62991;50.040;18.400;2022-11-20T04:43:08;0.80;51.30
74511;DHT22;62991;50.040;18.400;2022-11-20T04:46:09;0.80;51.40
74511;DHT22;62991;50.040;18.400;2022-11-20T04:49:11;0.70;51.40
74511;DHT22;62991;50.040;18.400;2022-11-20T04:52:12;0.70;51.50
74511;DHT22;62991;50.040;18.400;2022-11-20T04:55:13;0.70;51.60
74511;DHT22;62991;50.040;18.400;2022-11-20T04:58:14;0.60;51.50
74511;DHT22;62991;50.040;18.400;2022-11-20T05:01:20;0.60;51.60
74511;DHT22;62991;50.040;18.400;2022-11-20T05:04:22;0.50;51.70
74511;DHT22;62991;50.040;18.400;2022-11-20T05:07:22;0.50;51.80
74511;DHT22;62991;50.040;18.400;2022-11-20T05:10:26;0.50;51.80
74511;DHT22;62991;50.040;18.400;2022-11-20T05:13:28;0.40;51.80
74511;DHT22;62991;50.040;18.400;2022-11-20T05:16:28;0.40;51.80
74511;DHT22;62991;50.040;18.400;2022-11-20T05:19:29;0.40;52.00
74511;DHT22;62991;50.040;18.400;2022-11-20T05:22:30;0.40;52.00
74511;DHT22;62991;50.040;18.400;2022-11-20T05:25:30;0.40;52.00
74511;DHT22;62991;50.040;18.400;2022-11-20T05:28:31;0.40;52.00
74511;DHT22;62991;50.040;18.400;2022-11-20T05:31:32;0.40;52.00
74511;DHT22;62991;50.040;18.400;2022-11-20T05:34:33;0.40;52.00
74511;DHT22;62991;50.040;18.400;2022-11-20T05:37:34;0.40;52.00
74511;DHT22;62991;50.040;18.400;2022-11-20T05:40:34;0.40;52.10
74511;DHT22;62991;50.040;18.400;2022-11-20T05:43:37;0.40;52.10
74511;DHT22;62991;50.040;18.400;2022-11-20T05:46:38;0.40;52.10
74511;DHT22;62991;50.040;18.400;2022-11-20T05:49:38;0.40;52.10
74511;DHT22;62991;50.040;18.400;2022-11-20T05:52:39;0.40;52.30
74511;DHT22;62991;50.040;18.400;2022-11-20T05:55:40;0.40;52.20
74511;DHT22;62991;50.040;18.400;2022-11-20T05:58:41;0.40;52.20
74511;DHT22;62991;50.040;18.400;2022-11-20T06:01:42;0.40;52.20
74511;DHT22;62991;50.040;18.400;2022-11-20T06:04:43;0.40;52.20
74511;DHT22;62991;50.040;18.400;2022-11-20T06:07:43;0.40;52.30
74511;DHT22;62991;50.040;18.400;2022-11-20T06:10:44;0.50;52.30
74511;DHT22;62991;50.040;18.400;2022-11-20T06:13:45;0.50;52.30
74511;DHT22;62991;50.040;18.400;2022-11-20T06:16:46;0.40;52.30
74511;DHT22;62991;50.040;18.400;2022-11-20T06:19:47;0.40;52.30
74511;DHT22;62991;50.040;18.400;2022-11-20T06:22:47;0.40;52.30
74511;DHT22;62991;50.040;18.400;2022-11-20T06:25:48;0.40;52.40
74511;DHT22;62991;50.040;18.400;2022-11-20T06:28:50;0.30;52.40
74511;DHT22;62991;50.040;18.400;2022-11-20T06:31:50;0.30;52.50
74511;DHT22;62991;50.040;18.400;2022-11-20T06:34:51;0.30;52.50
74511;DHT22;62991;50.040;18.400;2022-11-20T06:37:52;0.30;52.50
74511;DHT22;62991;50.040;18.400;2022-11-20T06:40:53;0.30;52.50
74511;DHT22;62991;50.040;18.400;2022-11-20T06:43:54;0.40;52.50
74511;DHT22;62991;50.040;18.400;2022-11-20T06:46:54;0.40;52.50
74511;DHT22;62991;50.040;18.400;2022-11-20T06:49:55;0.40;52.60
74511;DHT22;62991;50.040;18.400;2022-11-20T06:52:56;0.40;52.50
74511;DHT22;62991;50.040;18.400;2022-11-20T06:55:57;0.40;52.60
74511;DHT22;62991;50.040;18.400;2022-11-20T06:59:04;0.50;52.50
74511;DHT22;62991;50.040;18.400;2022-11-20T07:02:08;0.50;52.60
74511;DHT22;62991;50.040;18.400;2022-11-20T07:05:09;0.50;52.60
74511;DHT22;62991;50.040;18.400;2022-11-20T07:08:09;0.60;52.60
74511;DHT22;62991;50.040;18.400;2022-11-20T07:11:13;0.60;52.70
74511;DHT22;62991;50.040;18.400;2022-11-20T07:14:14;0.60;52.60
74511;DHT22;62991;50.040;18.400;2022-11-20T07:17:14;0.70;52.70
74511;DHT22;62991;50.040;18.400;2022-11-20T07:20:15;0.70;52.70
74511;DHT22;62991;50.040;18.400;2022-11-20T07:23:16;0.70;52.70
74511;DHT22;62991;50.040;18.400;2022-11-20T07:26:17;0.80;52.70
74511;DHT22;62991;50.040;18.400;2022-11-20T07:29:18;0.90;52.60
74511;DHT22;62991;50.040;18.400;2022-11-20T07:32:18;0.90;52.70
74511;DHT22;62991;50.040;18.400;2022-11-20T07:35:19;1.00;52.60
74511;DHT22;62991;50.040;18.400;2022-11-20T07:38:20;1.10;52.60
74511;DHT22;62991;50.040;18.400;2022-11-20T07:41:21;1.10;52.60
74511;DHT22;62991;50.040;18.400;2022-11-20T07:44:21;1.10;52.50
74511;DHT22;62991;50.040;18.400;2022-11-20T07:47:22;1.10;52.50
74511;DHT22;62991;50.040;18.400;2022-11-20T07:50:23;1.20;52.60
74511;DHT22;62991;50.040;18.400;2022-11-20T07:53:24;1.20;52.50
74511;DHT22;62991;50.040;18.400;2022-11-20T07:56:25;1.10;52.60
74511;DHT22;62991;50.040;18.400;2022-11-20T07:59:25;1.20;52.60
74511;DHT22;62991;50.040;18.400;2022-11-20T08:02:26;1.20;52.60
74511;DHT22;62991;50.040;18.400;2022-11-20T08:05:27;1.20;52.60
74511;DHT22;62991;50.040;18.400;2022-11-20T08:08:28;1.30;52.70
74511;DHT22;62991;50.040;18.400;2022-11-20T08:11:29;1.30;52.70
74511;DHT22;62991;50.040;18.400;2022-11-20T08:14:48;1.30;52.70
74511;DHT22;62991;50.040;18.400;2022-11-20T08:17:49;1.30;52.70
74511;DHT22;62991;50.040;18.400;2022-11-20T08:20:50;1.30;52.70
74511;DHT22;62991;50.040;18.400;2022-11-20T08:23:50;1.30;52.80
74511;DHT22;62991;50.040;18.400;2022-11-20T08:26:51;1.40;52.90
74511;DHT22;62991;50.040;18.400;2022-11-20T08:29:52;1.40;53.00
74511;DHT22;62991;50.040;18.400;2022-11-20T08:32:53;1.50;53.00
74511;DHT22;62991;50.040;18.400;2022-11-20T08:36:01;1.50;52.90
74511;DHT22;62991;50.040;18.400;2022-11-20T08:39:03;1.50;53.00
74511;DHT22;62991;50.040;18.400;2022-11-20T08:42:07;1.50;53.10
74511;DHT22;62991;50.040;18.400;2022-11-20T08:45:08;1.60;53.10
74511;DHT22;62991;50.040;18.400;2022-11-20T08:48:09;1.70;53.10
74511;DHT22;62991;50.040;18.400;2022-11-20T08:51:11;1.70;53.00
74511;DHT22;62991;50.040;18.400;2022-11-20T08:54:11;1.80;53.00
74511;DHT22;62991;50.040;18.400;2022-11-20T08:57:12;2.00;52.90
74511;DHT22;62991;50.040;18.400;2022-11-20T09:00:13;2.00;52.90
74511;DHT22;62991;50.040;18.400;2022-11-20T09:03:14;2.10;52.80
74511;DHT22;62991;50.040;18.400;2022-11-20T09:06:15;2.10;52.90
74511;DHT22;62991;50.040;18.400;2022-11-20T09:09:17;2.10;53.00
74511;DHT22;62991;50.040;18.400;2022-11-20T09:12:18;2.10;53.00
74511;DHT22;62991;50.040;18.400;2022-11-20T09:15:19;2.10;53.10
74511;DHT22;62991;50.040;18.400;2022-11-20T09:18:20;2.10;53.20
74511;DHT22;62991;50.040;18.400;2022-11-20T09:21:22;2.10;53.20
74511;DHT22;62991;50.040;18.400;2022-11-20T09:24:23;2.10;53.30
74511;DHT22;62991;50.040;18.400;2022-11-20T09:27:23;2.10;53.40
74511;DHT22;62991;50.040;18.400;2022-11-20T09:30:25;2.10;53.40
74511;DHT22;62991;50.040;18.400;2022-11-20T09:33:26;2.10;53.50
74511;DHT22;62991;50.040;18.400;2022-11-20T09:36:27;2.20;53.50
74511;DHT22;62991;50.040;18.400;2022-11-20T09:39:28;2.20;53.50
74511;DHT22;62991;50.040;18.400;2022-11-20T09:42:52;2.30;53.50
74511;DHT22;62991;50.040;18.400;2022-11-20T09:55:48;2.60;53.60
74511;DHT22;62991;50.040;18.400;2022-11-20T09:58:54;2.70;53.70
74511;DHT22;62991;50.040;18.400;2022-11-20T10:01:59;2.80;53.70
74511;DHT22;62991;50.040;18.400;2022-11-20T10:08:29;2.90;53.90
74511;DHT22;62991;50.040;18.400;2022-11-20T10:11:51;2.90;54.00
74511;DHT22;62991;50.040;18.400;2022-11-20T10:15:17;3.00;54.00
74511;DHT22;62991;50.040;18.400;2022-11-20T10:25:15;3.40;54.00
74511;DHT22;62991;50.040;18.400;2022-11-20T10:31:50;3.60;54.10
74511;DHT22;62991;50.040;18.400;2022-11-20T10:38:05;3.90;54.00
74511;DHT22;62991;50.040;18.400;2022-11-20T10:41:12;4.00;54.00
74511;DHT22;62991;50.040;18.400;2022-11-20T10:44:30;4.20;54.00
74511;DHT22;62991;50.040;18.400;2022-11-20T10:47:49;4.30;54.10
74511;DHT22;62991;50.040;18.400;2022-11-20T10:57:59;4.40;54.20
74511;DHT22;62991;50.040;18.400;2022-11-20T11:01:11;4.50;54.30
74511;DHT22;62991;50.040;18.400;2022-11-20T11:04:39;4.70;54.30
74511;DHT22;62991;50.040;18.400;2022-11-20T11:07:41;4.90;54.20
74511;DHT22;62991;50.040;18.400;2022-11-20T11:10:51;5.00;54.10
74511;DHT22;62991;50.040;18.400;2022-11-20T11:13:52;5.10;54.10
74511;DHT22;62991;50.040;18.400;2022-11-20T11:16:55;5.30;54.00
74511;DHT22;62991;50.040;18.400;2022-11-20T11:26:28;5.80;53.50
74511;DHT22;62991;50.040;18.400;2022-11-20T11:29:28;5.80;53.40
74511;DHT22;62991;50.040;18.400;2022-11-20T11:32:31;5.90;53.40
74511;DHT22;62991;50.040;18.400;2022-11-20T11:35:31;5.90;53.30
74511;DHT22;62991;50.040;18.400;2022-11-20T11:38:42;6.10;53.30
74511;DHT22;62991;50.040;18.400;2022-11-20T11:41:43;6.40;53.60
74511;DHT22;62991;50.040;18.400;2022-11-20T11:44:46;7.10;53.80
74511;DHT22;62991;50.040;18.400;2022-11-20T11:48:08;7.90;53.60
74511;DHT22;62991;50.040;18.400;2022-11-20T11:51:09;8.80;52.90
74511;DHT22;62991;50.040;18.400;2022-11-20T11:54:23;9.70;52.20
74511;DHT22;62991;50.040;18.400;2022-11-20T11:57:41;10.60;51.30
74511;DHT22;62991;50.040;18.400;2022-11-20T12:00:54;11.40;50.10
74511;DHT22;62991;50.040;18.400;2022-11-20T12:10:22;13.80;48.20
74511;DHT22;62991;50.040;18.400;2022-11-20T12:13:48;14.50;47.10
74511;DHT22;62991;50.040;18.400;2022-11-20T12:16:51;14.90;46.10
74511;DHT22;62991;50.040;18.400;2022-11-20T12:19:53;15.20;45.10
74511;DHT22;62991;50.040;18.400;2022-11-20T12:23:17;15.20;44.50
74511;DHT22;62991;50.040;18.400;2022-11-20T12:29:52;15.60;44.40
74511;DHT22;62991;50.040;18.400;2022-11-20T12:36:12;16.20;43.20
74511;DHT22;62991;50.040;18.400;2022-11-20T12:46:44;14.10;41.80
74511;DHT22;62991;50.040;18.400;2022-11-20T12:53:33;12.30;42.90
74511;DHT22;62991;50.040;18.400;2022-11-20T13:06:24;9.30;44.60
74511;DHT22;62991;50.040;18.400;2022-11-20T13:09:26;8.80;45.00
74511;DHT22;62991;50.040;18.400;2022-11-20T13:12:35;8.40;45.40
74511;DHT22;62991;50.040;18.400;2022-11-20T13:15:49;8.10;45.70
74511;DHT22;62991;50.040;18.400;2022-11-20T13:18:52;7.70;46.00
74511;DHT22;62991;50.040;18.400;2022-11-20T13:21:53;7.40;46.40
74511;DHT22;62991;50.040;18.400;2022-11-20T13:24:54;7.10;46.60
74511;DHT22;62991;50.040;18.400;2022-11-20T13:27:56;6.90;46.90
74511;DHT22;62991;50.040;18.400;2022-11-20T13:30:58;6.60;47.10
74511;DHT22;62991;50.040;18.400;2022-11-20T13:34:01;6.40;47.40
74511;DHT22;62991;50.040;18.400;2022-11-20T13:37:03;6.20;47.70
74511;DHT22;62991;50.040;18.400;2022-11-20T13:43:21;5.70;48.30
74511;DHT22;62991;50.040;18.400;2022-11-20T13:46:34;5.50;48.60
74511;DHT22;62991;50.040;18.400;2022-11-20T13:49:39;5.30;49.00
74511;DHT22;62991;50.040;18.400;2022-11-20T13:52:55;5.20;49.10
74511;DHT22;62991;50.040;18.400;2022-11-20T14:03:08;4.80;50.00
74511;DHT22;62991;50.040;18.400;2022-11-20T14:09:33;4.50;50.50
74511;DHT22;62991;50.040;18.400;2022-11-20T14:12:34;4.50;50.90
74511;DHT22;62991;50.040;18.400;2022-11-20T14:15:37;4.40;51.00
74511;DHT22;62991;50.040;18.400;2022-11-20T14:18:40;4.30;51.10
74511;DHT22;62991;50.040;18.400;2022-11-20T14:21:41;4.30;51.20
74511;DHT22;62991;50.040;18.400;2022-11-20T14:24:42;4.30;51.70
74511;DHT22;62991;50.040;18.400;2022-11-20T14:27:51;4.20;51.90
74511;DHT22;62991;50.040;18.400;2022-11-20T14:30:52;4.20;52.20
74511;DHT22;62991;50.040;18.400;2022-11-20T14:33:54;4.10;52.20
74511;DHT22;62991;50.040;18.400;2022-11-20T14:37:01;4.10;52.20
74511;DHT22;62991;50.040;18.400;2022-11-20T14:40:02;4.10;52.30
74511;DHT22;62991;50.040;18.400;2022-11-20T14:43:27;4.10;52.20
74511;DHT22;62991;50.040;18.400;2022-11-20T14:46:30;4.00;52.50
74511;DHT22;62991;50.040;18.400;2022-11-20T14:49:32;4.00;52.90
74511;DHT22;62991;50.040;18.400;2022-11-20T14:52:33;4.00;52.90
74511;DHT22;62991;50.040;18.400;2022-11-20T14:55:36;4.00;53.00
74511;DHT22;62991;50.040;18.400;2022-11-20T14:58:37;3.90;53.00
74511;DHT22;62991;50.040;18.400;2022-11-20T15:01:38;3.90;53.20
74511;DHT22;62991;50.040;18.400;2022-11-20T15:04:50;3.90;53.50
74511;DHT22;62991;50.040;18.400;2022-11-20T15:08:07;3.80;53.80
74511;DHT22;62991;50.040;18.400;2022-11-20T15:11:20;3.70;54.00
74511;DHT22;62991;50.040;18.400;2022-11-20T15:14:24;3.70;54.00
74511;DHT22;62991;50.040;18.400;2022-11-20T15:17:25;3.70;54.00
74511;DHT22;62991;50.040;18.400;2022-11-20T15:20:31;3.70;54.00
74511;DHT22;62991;50.040;18.400;2022-11-20T15:23:31;3.70;54.10
74511;DHT22;62991;50.040;18.400;2022-11-20T15:26:34;3.70;54.10
74511;DHT22;62991;50.040;18.400;2022-11-20T15:29:35;3.80;54.00
74511;DHT22;62991;50.040;18.400;2022-11-20T15:32:35;3.80;54.10
74511;DHT22;62991;50.040;18.400;2022-11-20T15:35:36;3.80;54.10
74511;DHT22;62991;50.040;18.400;2022-11-20T15:38:37;3.90;54.00
74511;DHT22;62991;50.040;18.400;2022-11-20T15:41:38;3.90;54.00
74511;DHT22;62991;50.040;18.400;2022-11-20T15:44:39;4.00;54.00
74511;DHT22;62991;50.040;18.400;2022-11-20T15:47:39;4.00;54.00
74511;DHT22;62991;50.040;18.400;2022-11-20T15:54:17;4.10;53.90
74511;DHT22;62991;50.040;18.400;2022-11-20T15:57:20;4.20;53.80
74511;DHT22;62991;50.040;18.400;2022-11-20T16:00:20;4.20;53.80
74511;DHT22;62991;50.040;18.400;2022-11-20T16:03:22;4.20;53.90
74511;DHT22;62991;50.040;18.400;2022-11-20T16:06:23;4.10;54.00
74511;DHT22;62991;50.040;18.400;2022-11-20T16:09:23;4.00;54.20
74511;DHT22;62991;50.040;18.400;2022-11-20T16:12:24;4.00;54.30
74511;DHT22;62991;50.040;18.400;2022-11-20T16:15:50;3.90;54.60
74511;DHT22;62991;50.040;18.400;2022-11-20T16:18:53;3.80;55.00
74511;DHT22;62991;50.040;18.400;2022-11-20T16:21:53;3.70;55.10
74511;DHT22;62991;50.040;18.400;2022-11-20T16:24:54;3.60;55.60
74511;DHT22;62991;50.040;18.400;2022-11-20T16:27:54;3.50;55.60
74511;DHT22;62991;50.040;18.400;2022-11-20T16:30:55;3.50;55.70
74511;DHT22;62991;50.040;18.400;2022-11-20T16:33:58;3.40;55.70
74511;DHT22;62991;50.040;18.400;2022-11-20T16:36:59;3.40;55.70
74511;DHT22;62991;50.040;18.400;2022-11-20T16:39:59;3.40;55.80
74511;DHT22;62991;50.040;18.400;2022-11-20T16:43:08;3.40;55.90
74511;DHT22;62991;50.040;18.400;2022-11-20T16:46:09;3.40;55.80
74511;DHT22;62991;50.040;18.400;2022-11-20T16:49:12;3.40;55.90
74511;DHT22;62991;50.040;18.400;2022-11-20T16:52:13;3.40;55.90
74511;DHT22;62991;50.040;18.400;2022-11-20T16:55:14;3.50;55.90
74511;DHT22;62991;50.040;18.400;2022-11-20T16:58:15;3.40;55.90
74511;DHT22;62991;50.040;18.400;2022-11-20T17:01:18;3.40;55.90
74511;DHT22;62991;50.040;18.400;2022-11-20T17:04:21;3.40;56.00
74511;DHT22;62991;50.040;18.400;2022-11-20T17:07:22;3.40;56.00
74511;DHT22;62991;50.040;18.400;2022-11-20T17:10:23;3.40;56.00
74511;DHT22;62991;50.040;18.400;2022-11-20T17:13:23;3.40;56.10
74511;DHT22;62991;50.040;18.400;2022-11-20T17:16:24;3.50;56.10
74511;DHT22;62991;50.040;18.400;2022-11-20T17:19:25;3.50;56.30
74511;DHT22;62991;50.040;18.400;2022-11-20T17:22:26;3.50;56.30
74511;DHT22;62991;50.040;18.400;2022-11-20T17:25:27;3.50;56.30
74511;DHT22;62991;50.040;18.400;2022-11-20T17:28:28;3.40;56.50
74511;DHT22;62991;50.040;18.400;2022-11-20T17:31:30;3.40;56.60
74511;DHT22;62991;50.040;18.400;2022-11-20T17:34:31;3.40;56.50
74511;DHT22;62991;50.040;18.400;2022-11-20T17:37:31;3.40;56.60
74511;DHT22;62991;50.040;18.400;2022-11-20T17:40:32;3.40;56.70
74511;DHT22;62991;50.040;18.400;2022-11-20T17:43:33;3.40;56.80
74511;DHT22;62991;50.040;18.400;2022-11-20T17:46:36;3.40;56.70
74511;DHT22;62991;50.040;18.400;2022-11-20T17:49:37;3.40;56.90
74511;DHT22;62991;50.040;18.400;2022-11-20T17:52:38;3.40;56.80
74511;DHT22;62991;50.040;18.400;2022-11-20T17:55:38;3.50;56.80
74511;DHT22;62991;50.040;18.400;2022-11-20T17:58:58;3.50;56.70
74511;DHT22;62991;50.040;18.400;2022-11-20T18:01:59;3.50;56.80
74511;DHT22;62991;50.040;18.400;2022-11-20T18:04:59;3.50;56.70
74511;DHT22;62991;50.040;18.400;2022-11-20T18:08:00;3.60;56.80
74511;DHT22;62991;50.040;18.400;2022-11-20T18:11:21;3.60;56.80
74511;DHT22;62991;50.040;18.400;2022-11-20T18:14:22;3.60;56.90
74511;DHT22;62991;50.040;18.400;2022-11-20T18:17:28;3.60;56.90
74511;DHT22;62991;50.040;18.400;2022-11-20T18:20:29;3.60;56.90
74511;DHT22;62991;50.040;18.400;2022-11-20T18:23:29;3.70;56.90
74511;DHT22;62991;50.040;18.400;2022-11-20T18:26:30;3.70;56.90
74511;DHT22;62991;50.040;18.400;2022-11-20T18:29:31;3.70;57.00
74511;DHT22;62991;50.040;18.400;2022-11-20T18:32:33;3.80;57.00
74511;DHT22;62991;50.040;18.400;2022-11-20T18:35:34;3.80;57.10
74511;DHT22;62991;50.040;18.400;2022-11-20T18:38:35;3.70;57.20
74511;DHT22;62991;50.040;18.400;2022-11-20T18:41:40;3.80;57.30
74511;DHT22;62991;50.040;18.400;2022-11-20T18:45:00;3.70;57.40
74511;DHT22;62991;50.040;18.400;2022-11-20T18:48:03;3.80;57.40
74511;DHT22;62991;50.040;18.400;2022-11-20T18:51:06;3.90;57.30
74511;DHT22;62991;50.040;18.400;2022-11-20T18:54:06;3.90;57.40
74511;DHT22;62991;50.040;18.400;2022-11-20T18:57:07;3.90;57.30
74511;DHT22;62991;50.040;18.400;2022-11-20T19:00:10;4.00;57.30
74511;DHT22;62991;50.040;18.400;2022-11-20T19:03:11;4.00;57.40
74511;DHT22;62991;50.040;18.400;2022-11-20T19:06:12;4.00;57.40
74511;DHT22;62991;50.040;18.400;2022-11-20T19:09:14;4.10;57.30
74511;DHT22;62991;50.040;18.400;2022-11-20T19:12:15;4.10;57.30
74511;DHT22;62991;50.040;18.400;2022-11-20T19:15:16;4.10;57.30
74511;DHT22;62991;50.040;18.400;2022-11-20T19:18:16;4.20;57.40
74511;DHT22;62991;50.040;18.400;2022-11-20T19:21:22;4.20;57.40
74511;DHT22;62991;50.040;18.400;2022-11-20T19:24:23;4.20;57.40
74511;DHT22;62991;50.040;18.400;2022-11-20T19:27:24;4.30;57.30
74511;DHT22;62991;50.040;18.400;2022-11-20T19:30:24;4.30;57.40
74511;DHT22;62991;50.040;18.400;2022-11-20T19:33:25;4.40;57.30
74511;DHT22;62991;50.040;18.400;2022-11-20T19:36:28;4.40;57.30
74511;DHT22;62991;50.040;18.400;2022-11-20T19:39:30;4.40;57.30
74511;DHT22;62991;50.040;18.400;2022-11-20T19:42:30;4.50;57.30
74511;DHT22;62991;50.040;18.400;2022-11-20T19:45:31;4.50;57.20
74511;DHT22;62991;50.040;18.400;2022-11-20T19:48:33;4.50;57.20
74511;DHT22;62991;50.040;18.400;2022-11-20T19:51:36;4.50;57.20
74511;DHT22;62991;50.040;18.400;2022-11-20T19:54:37;4.60;57.20
74511;DHT22;62991;50.040;18.400;2022-11-20T19:57:37;4.60;57.20
74511;DHT22;62991;50.040;18.400;2022-11-20T20:00:38;4.60;57.30
74511;DHT22;62991;50.040;18.400;2022-11-20T20:03:39;4.60;57.30
74511;DHT22;62991;50.040;18.400;2022-11-20T20:06:40;4.50;57.40
74511;DHT22;62991;50.040;18.400;2022-11-20T20:09:41;4.50;57.50
74511;DHT22;62991;50.040;18.400;2022-11-20T20:12:42;4.50;57.60
74511;DHT22;62991;50.040;18.400;2022-11-20T20:15:42;4.50;57.70
74511;DHT22;62991;50.040;18.400;2022-11-20T20:18:44;4.40;57.70
74511;DHT22;62991;50.040;18.400;2022-11-20T20:21:44;4.40;57.80
74511;DHT22;62991;50.040;18.400;2022-11-20T20:24:47;4.40;57.80
74511;DHT22;62991;50.040;18.400;2022-11-20T20:27:47;4.50;57.80
74511;DHT22;62991;50.040;18.400;2022-11-20T20:30:48;4.50;57.80
74511;DHT22;62991;50.040;18.400;2022-11-20T20:33:49;4.50;57.80
74511;DHT22;62991;50.040;18.400;2022-11-20T20:36:49;4.60;57.70
74511;DHT22;62991;50.040;18.400;2022-11-20T20:39:50;4.60;57.80
74511;DHT22;62991;50.040;18.400;2022-11-20T20:42:51;4.50;57.70
74511;DHT22;62991;50.040;18.400;2022-11-20T20:45:52;4.50;57.70
74511;DHT22;62991;50.040;18.400;2022-11-20T20:48:53;4.50;57.90
74511;DHT22;62991;50.040;18.400;2022-11-20T20:51:53;4.50;58.00